createdAt,value
2023-01-09T00:01:42.889Z,4.93
2023-01-09T00:04:13.538Z,5.20
2023-01-09T00:06:43.263Z,4.83
2023-01-09T00:09:13.489Z,4.50
2023-01-09T00:11:41.088Z,4.80
2023-01-09T00:14:10.907Z,5.13
2023-01-09T00:16:38.706Z,5.17
2023-01-09T00:19:06.408Z,3.70
2023-01-09T00:21:34.231Z,3.00
2023-01-09T00:24:03.894Z,3.80
2023-01-09T00:26:31.796Z,3.60
2023-01-09T00:28:59.668Z,4.00
2023-01-09T00:31:27.430Z,3.20
2023-01-09T00:33:59.020Z,2.33
2023-01-09T00:36:28.944Z,2.60
2023-01-09T00:38:56.695Z,2.93
2023-01-09T00:41:41.600Z,1.53
2023-01-09T00:44:20.261Z,1.00
2023-01-09T00:46:58.420Z,0.60
2023-01-09T00:49:34.184Z,0.80
2023-01-09T00:52:03.003Z,0.90
2023-01-09T00:54:31.983Z,0.60
2023-01-09T00:56:59.980Z,0.70
2023-01-09T00:59:28.449Z,0.60
2023-01-09T01:01:56.423Z,0.63
2023-01-09T01:04:42.925Z,0.50
2023-01-09T01:07:29.403Z,0.73
2023-01-09T01:09:59.767Z,0.60
2023-01-09T01:12:27.470Z,0.50
2023-01-09T01:14:55.031Z,0.47
2023-01-09T01:17:22.657Z,0.50
2023-01-09T01:19:50.321Z,0.33
2023-01-09T01:22:21.024Z,0.50
2023-01-09T01:24:48.675Z,0.40
2023-01-09T01:27:16.292Z,0.50
2023-01-09T01:29:44.141Z,0.30
2023-01-09T01:32:11.853Z,0.20
2023-01-09T01:34:39.538Z,0.23
2023-01-09T01:37:10.927Z,0.23
2023-01-09T01:39:38.490Z,0.50
2023-01-09T01:42:06.598Z,0.40
2023-01-09T01:45:05.099Z,0.50
2023-01-09T01:47:39.174Z,0.30
2023-01-09T01:50:13.425Z,0.30
2023-01-09T01:52:44.300Z,0.40
2023-01-09T01:55:12.314Z,0.30
2023-01-09T01:57:45.823Z,0.30
2023-01-09T02:00:14.398Z,0.30
2023-01-09T02:02:43.547Z,0.30
2023-01-09T02:05:11.739Z,0.40
2023-01-09T02:07:39.322Z,0.63
2023-01-09T02:10:07.709Z,0.70
2023-01-09T02:12:35.274Z,0.60
2023-01-09T02:15:16.433Z,0.60
2023-01-09T02:18:02.887Z,0.50
2023-01-09T02:20:48.693Z,0.40
2023-01-09T02:23:50.074Z,0.40
2023-01-09T02:27:00.166Z,0.30
2023-01-09T02:29:55.387Z,0.30
2023-01-09T02:32:49.384Z,0.43
2023-01-09T02:35:25.749Z,0.40
2023-01-09T02:37:59.228Z,0.40
2023-01-09T02:40:35.199Z,0.40
2023-01-09T02:43:03.558Z,0.47
2023-01-09T02:45:31.216Z,0.30
2023-01-09T02:47:58.934Z,0.40
2023-01-09T02:50:50.774Z,0.30
2023-01-09T02:53:46.036Z,0.40
2023-01-09T02:56:34.870Z,0.60
2023-01-09T02:59:17.851Z,0.40
2023-01-09T03:02:03.936Z,0.40
2023-01-09T03:04:53.507Z,0.60
2023-01-09T03:07:48.303Z,0.30
2023-01-09T03:10:27.661Z,0.50
2023-01-09T03:12:59.008Z,0.40
2023-01-09T03:15:32.691Z,0.40
2023-01-09T03:18:01.728Z,0.63
2023-01-09T03:20:31.213Z,0.73
2023-01-09T03:23:05.787Z,0.50
2023-01-09T03:25:34.307Z,0.50
2023-01-09T03:28:04.849Z,0.30
2023-01-09T03:30:34.157Z,0.50
2023-01-09T03:33:02.115Z,0.30
2023-01-09T03:35:32.440Z,0.40
2023-01-09T03:38:00.081Z,0.40
2023-01-09T03:40:27.944Z,0.40
2023-01-09T03:42:55.547Z,0.30
2023-01-09T03:45:23.141Z,0.40
2023-01-09T03:47:52.869Z,0.37
2023-01-09T03:50:20.651Z,0.63
2023-01-09T03:52:48.247Z,0.40
2023-01-09T03:55:15.942Z,0.43
2023-01-09T03:57:43.593Z,0.40
2023-01-09T04:00:11.801Z,0.40
2023-01-09T04:02:39.671Z,0.40
2023-01-09T04:05:07.936Z,0.80
2023-01-09T04:07:38.870Z,0.87
2023-01-09T04:10:07.186Z,0.60
2023-01-09T04:12:34.765Z,0.60
2023-01-09T04:15:02.661Z,0.63
2023-01-09T04:17:30.331Z,0.70
2023-01-09T04:20:01.391Z,0.60
2023-01-09T04:22:29.288Z,0.70
2023-01-09T04:24:56.881Z,0.50
2023-01-09T04:27:25.438Z,0.63
2023-01-09T04:29:58.829Z,0.60
2023-01-09T04:32:27.665Z,0.70
2023-01-09T04:34:55.787Z,0.90
2023-01-09T04:37:24.168Z,0.50
2023-01-09T04:39:56.075Z,0.70
2023-01-09T04:42:26.308Z,0.60
2023-01-09T04:44:56.671Z,0.60
2023-01-09T04:47:27.426Z,0.63
2023-01-09T04:49:57.890Z,0.57
2023-01-09T04:52:33.625Z,0.50
2023-01-09T04:55:08.327Z,0.50
2023-01-09T04:57:38.927Z,0.70
2023-01-09T05:00:11.989Z,1.33
2023-01-09T05:02:44.387Z,1.07
2023-01-09T05:05:13.314Z,1.03
2023-01-09T05:07:41.201Z,0.80
2023-01-09T05:10:10.414Z,0.80
2023-01-09T05:12:39.644Z,1.10
2023-01-09T05:15:08.692Z,1.20
2023-01-09T05:17:36.320Z,1.20
2023-01-09T05:20:06.761Z,0.80
2023-01-09T05:22:34.395Z,0.77
2023-01-09T05:25:02.132Z,0.90
2023-01-09T05:27:30.465Z,1.00
2023-01-09T05:29:58.227Z,0.80
2023-01-09T05:32:25.830Z,0.90
2023-01-09T05:34:53.403Z,0.70
2023-01-09T05:37:23.936Z,0.80
2023-01-09T05:39:51.560Z,0.80
2023-01-09T05:42:19.147Z,1.53
2023-01-09T05:44:46.908Z,0.80
2023-01-09T05:47:18.117Z,2.00
2023-01-09T05:49:45.928Z,1.17
2023-01-09T05:52:13.678Z,1.37
2023-01-09T05:54:41.430Z,1.50
2023-01-09T05:57:09.084Z,1.67
2023-01-09T05:59:36.715Z,1.70
2023-01-09T06:02:04.417Z,1.10
2023-01-09T06:04:31.984Z,1.53
2023-01-09T06:22:09.423Z,1.30
2023-01-09T06:24:40.686Z,1.80
2023-01-09T06:27:08.320Z,1.70
2023-01-09T06:29:39.565Z,1.60
2023-01-09T06:32:15.825Z,1.33
2023-01-09T06:34:43.425Z,1.57
2023-01-09T06:37:13.002Z,1.17
2023-01-09T06:39:40.601Z,1.30
2023-01-09T06:42:08.311Z,1.30
2023-01-09T06:44:36.749Z,1.10
2023-01-09T06:47:04.823Z,0.97
2023-01-09T06:49:32.581Z,0.80
2023-01-09T06:52:05.311Z,1.23
2023-01-09T06:54:34.509Z,0.97
2023-01-09T06:57:02.263Z,1.30
2023-01-09T06:59:29.852Z,1.00
2023-01-09T07:01:57.627Z,0.90
2023-01-09T07:04:25.871Z,1.07
2023-01-09T07:06:54.743Z,0.67
2023-01-09T07:09:22.480Z,1.13
2023-01-09T07:11:50.124Z,1.10
2023-01-09T07:14:17.755Z,1.57
2023-01-09T07:16:45.417Z,1.00
2023-01-09T07:19:16.121Z,1.97
2023-01-09T07:21:43.711Z,0.97
2023-01-09T07:24:11.406Z,1.07
2023-01-09T07:26:38.995Z,1.60
2023-01-09T07:29:06.625Z,1.60
2023-01-09T07:31:37.303Z,1.63
2023-01-09T07:34:04.988Z,1.23
2023-01-09T07:36:32.622Z,1.50
2023-01-09T07:39:03.025Z,1.50
2023-01-09T07:41:30.597Z,1.67
2023-01-09T07:43:58.327Z,2.40
2023-01-09T07:46:26.413Z,2.10
2023-01-09T07:48:53.991Z,3.03
2023-01-09T07:51:24.842Z,2.00
2023-01-09T07:53:52.488Z,2.00
2023-01-09T07:56:21.425Z,2.10
2023-01-09T07:58:49.115Z,2.20
2023-01-09T08:01:16.881Z,1.67
2023-01-09T08:03:44.515Z,1.97
2023-01-09T08:06:12.074Z,2.10
2023-01-09T08:08:39.677Z,1.90
2023-01-09T08:11:08.949Z,2.30
2023-01-09T08:13:36.551Z,2.00
2023-01-09T08:16:04.632Z,2.20
2023-01-09T08:18:32.267Z,2.17
2023-01-09T08:21:00.296Z,2.30
2023-01-09T08:23:27.896Z,1.90
2023-01-09T08:25:55.529Z,1.80
2023-01-09T08:28:23.221Z,2.00
2023-01-09T08:30:51.077Z,2.33
2023-01-09T08:33:18.721Z,2.00
2023-01-09T08:35:46.445Z,1.73
2023-01-09T08:38:14.169Z,3.40
2023-01-09T08:40:47.025Z,3.20
2023-01-09T08:43:33.471Z,2.60
2023-01-09T08:46:23.206Z,1.70
2023-01-09T08:48:50.850Z,3.53
2023-01-09T08:51:18.610Z,4.37
2023-01-09T08:53:48.809Z,3.53
2023-01-09T08:56:19.549Z,2.50
2023-01-09T08:58:48.488Z,1.60
2023-01-09T09:01:18.427Z,1.70
2023-01-09T09:03:47.510Z,2.60
2023-01-09T09:06:15.180Z,1.93
2023-01-09T09:08:42.903Z,1.80
2023-01-09T09:11:10.529Z,3.60
2023-01-09T09:13:38.395Z,2.83
2023-01-09T09:16:06.609Z,1.20
2023-01-09T09:18:36.523Z,1.40
2023-01-09T09:21:04.259Z,1.40
2023-01-09T09:23:31.970Z,1.40
2023-01-09T09:25:59.533Z,1.40
2023-01-09T09:28:27.193Z,1.10
2023-01-09T09:30:54.905Z,1.53
2023-01-09T09:33:23.171Z,1.70
2023-01-09T09:35:50.903Z,1.60
2023-01-09T09:38:21.732Z,1.70
2023-01-09T09:41:39.633Z,2.77
2023-01-09T09:44:52.736Z,2.30
2023-01-09T09:47:30.603Z,3.40
2023-01-09T09:50:26.599Z,1.70
2023-01-09T09:53:05.940Z,1.30
2023-01-09T09:55:35.709Z,2.30
2023-01-09T09:58:28.326Z,1.43
2023-01-09T10:00:59.519Z,1.73
2023-01-09T10:03:34.542Z,1.90
2023-01-09T10:06:10.880Z,2.27
2023-01-09T10:08:53.352Z,1.90
2023-01-09T10:11:35.226Z,1.27
2023-01-09T10:14:08.240Z,1.20
2023-01-09T10:17:03.445Z,0.90
2023-01-09T10:20:01.945Z,1.10
2023-01-09T10:22:49.069Z,0.90
2023-01-09T10:25:33.074Z,0.70
2023-01-09T10:28:08.691Z,0.80
2023-01-09T10:30:49.509Z,0.83
2023-01-09T10:33:23.093Z,0.80
2023-01-09T10:36:12.700Z,1.10
2023-01-09T10:38:50.851Z,0.80
2023-01-09T10:41:41.738Z,0.87
2023-01-09T10:44:24.339Z,0.80
2023-01-09T10:46:57.249Z,0.70
2023-01-09T10:49:25.640Z,0.90
2023-01-09T10:52:14.739Z,1.00
2023-01-09T10:55:03.458Z,0.87
2023-01-09T10:57:38.540Z,0.73
2023-01-09T11:00:17.464Z,0.60
2023-01-09T11:02:45.845Z,1.00
2023-01-09T11:05:18.537Z,0.67
2023-01-09T11:07:50.417Z,0.70
2023-01-09T11:10:27.388Z,0.80
2023-01-09T11:13:14.411Z,1.10
2023-01-09T11:15:42.207Z,1.47
2023-01-09T11:18:24.758Z,0.80
2023-01-09T11:20:52.793Z,0.87
2023-01-09T11:23:33.231Z,0.70
2023-01-09T11:26:03.972Z,0.90
2023-01-09T11:28:32.211Z,0.97
2023-01-09T11:31:05.458Z,1.10
2023-01-09T11:33:49.816Z,0.87
2023-01-09T11:36:19.077Z,0.93
2023-01-09T11:38:53.384Z,0.83
2023-01-09T11:41:26.790Z,0.80
2023-01-09T11:44:00.278Z,0.97
2023-01-09T11:46:37.552Z,0.70
2023-01-09T11:49:26.925Z,1.03
2023-01-09T11:52:20.966Z,0.80
2023-01-09T11:54:59.017Z,0.80
2023-01-09T11:57:27.569Z,0.87
2023-01-09T12:00:00.194Z,0.83
2023-01-09T12:02:35.709Z,0.80
2023-01-09T12:05:25.065Z,0.90
2023-01-09T12:08:14.348Z,0.97
2023-01-09T12:10:45.657Z,1.00
2023-01-09T12:14:12.693Z,0.60
2023-01-09T12:17:23.931Z,0.60
2023-01-09T12:20:17.056Z,0.60
2023-01-09T12:22:57.598Z,0.60
2023-01-09T12:25:52.434Z,0.63
2023-01-09T12:28:25.501Z,0.60
2023-01-09T12:30:53.021Z,0.60
2023-01-09T12:33:35.882Z,0.60
2023-01-09T12:37:05.993Z,0.87
2023-01-09T12:39:51.322Z,0.60
2023-01-09T12:42:57.225Z,0.50
2023-01-09T12:45:47.542Z,0.70
2023-01-09T12:48:40.994Z,0.50
2023-01-09T12:51:31.264Z,0.77
2023-01-09T12:54:22.518Z,0.50
2023-01-09T12:56:56.424Z,0.57
2023-01-09T12:59:54.989Z,0.50
2023-01-09T13:02:35.278Z,1.10
2023-01-09T13:05:15.745Z,0.73
2023-01-09T13:08:00.513Z,1.13
2023-01-09T13:10:42.082Z,0.70
2023-01-09T13:13:29.406Z,0.60
2023-01-09T13:16:13.794Z,0.60
2023-01-09T13:18:54.808Z,0.70
2023-01-09T13:21:22.793Z,0.40
2023-01-09T13:23:58.328Z,0.70
2023-01-09T13:26:38.075Z,0.63
2023-01-09T13:29:08.537Z,0.50
2023-01-09T13:32:10.229Z,0.60
2023-01-09T13:34:39.197Z,0.53
2023-01-09T13:37:22.547Z,0.83
2023-01-09T13:39:59.408Z,1.17
2023-01-09T13:42:38.827Z,0.83
2023-01-09T13:45:24.585Z,1.00
2023-01-09T13:48:14.154Z,1.07
2023-01-09T13:50:42.658Z,0.87
2023-01-09T13:53:27.095Z,1.23
2023-01-09T13:55:58.025Z,3.50
2023-01-09T13:58:55.579Z,1.93
2023-01-09T14:01:36.018Z,0.70
2023-01-09T14:04:09.533Z,0.60
2023-01-09T14:06:37.282Z,0.60
2023-01-09T14:09:11.788Z,0.57
2023-01-09T14:11:40.006Z,0.67
2023-01-09T14:14:25.106Z,0.93
2023-01-09T14:16:52.879Z,1.40
2023-01-09T14:19:37.314Z,1.17
2023-01-09T14:22:06.848Z,1.37
2023-01-09T14:24:43.814Z,1.57
2023-01-09T14:27:49.052Z,0.97
2023-01-09T14:30:50.411Z,1.10
2023-01-09T14:33:22.211Z,1.60
2023-01-09T14:36:22.035Z,1.77
2023-01-09T14:38:58.535Z,0.90
2023-01-09T14:42:00.852Z,0.70
2023-01-09T14:44:30.171Z,1.17
2023-01-09T14:47:17.254Z,0.97
2023-01-09T14:49:51.666Z,0.90
2023-01-09T14:52:26.928Z,0.80
2023-01-09T14:54:59.254Z,0.60
2023-01-09T14:57:33.898Z,0.97
2023-01-09T15:00:03.542Z,1.83
2023-01-09T15:02:34.729Z,1.00
2023-01-09T15:05:09.292Z,0.90
2023-01-09T15:07:58.174Z,0.77
2023-01-09T15:10:30.569Z,0.80
2023-01-09T15:13:01.641Z,0.87
2023-01-09T15:15:31.698Z,0.90
2023-01-09T15:18:06.805Z,0.90
2023-01-09T15:20:37.587Z,1.57
2023-01-09T15:23:05.510Z,1.30
2023-01-09T15:25:40.221Z,1.37
2023-01-09T15:28:32.015Z,0.63
2023-01-09T15:31:16.363Z,1.20
2023-01-09T15:33:47.164Z,0.70
2023-01-09T15:36:31.013Z,0.80
2023-01-09T15:39:00.057Z,0.90
2023-01-09T15:41:48.394Z,1.00
2023-01-09T15:44:26.250Z,0.80
2023-01-09T15:46:58.767Z,0.73
2023-01-09T15:49:26.908Z,0.70
2023-01-09T15:51:54.731Z,0.73
2023-01-09T15:54:30.829Z,0.70
2023-01-09T15:57:26.501Z,0.60
2023-01-09T15:59:55.571Z,0.63
2023-01-09T16:02:43.916Z,0.70
2023-01-09T16:05:16.630Z,0.63
2023-01-09T16:07:46.561Z,0.70
2023-01-09T16:10:34.203Z,0.60
2023-01-09T16:13:03.048Z,0.93
2023-01-09T16:15:34.600Z,0.80
2023-01-09T16:18:13.972Z,1.10
2023-01-09T16:20:42.916Z,0.80
2023-01-09T16:23:24.133Z,0.90
2023-01-09T16:26:03.625Z,0.77
2023-01-09T16:28:31.306Z,1.00
2023-01-09T16:30:58.871Z,0.77
2023-01-09T16:33:29.344Z,0.80
2023-01-09T16:35:59.947Z,1.00
2023-01-09T16:38:27.714Z,0.60
2023-01-09T16:41:25.333Z,0.60
2023-01-09T16:43:56.482Z,0.60
2023-01-09T16:46:56.521Z,0.60
2023-01-09T16:49:31.188Z,0.83
2023-01-09T16:52:02.937Z,0.90
2023-01-09T16:54:30.757Z,0.70
2023-01-09T16:57:00.781Z,0.60
2023-01-09T16:59:28.645Z,0.80
2023-01-09T17:01:56.492Z,0.60
2023-01-09T17:04:24.191Z,0.90
2023-01-09T17:06:52.111Z,1.20
2023-01-09T17:09:53.416Z,0.53
2023-01-09T17:12:34.991Z,0.80
2023-01-09T17:15:20.360Z,1.40
2023-01-09T17:18:08.854Z,1.50
2023-01-09T17:20:38.599Z,0.77
2023-01-09T17:23:24.027Z,0.60
2023-01-09T17:26:22.988Z,1.43
2023-01-09T17:28:54.685Z,0.57
2023-01-09T17:31:25.430Z,0.60
2023-01-09T17:34:06.182Z,0.80
2023-01-09T17:36:51.517Z,1.00
2023-01-09T17:39:35.956Z,0.87
2023-01-09T17:42:12.491Z,1.37
2023-01-09T17:44:49.608Z,1.30
2023-01-09T17:47:46.128Z,1.20
2023-01-09T17:50:22.235Z,0.97
2023-01-09T17:53:05.177Z,0.67
2023-01-09T17:55:59.696Z,0.80
2023-01-09T17:58:51.795Z,0.70
2023-01-09T18:04:07.882Z,0.80
2023-01-09T18:06:42.507Z,1.03
2023-01-09T18:09:19.172Z,1.00
2023-01-09T18:12:08.560Z,0.90
2023-01-09T18:14:39.023Z,1.30
2023-01-09T18:17:17.422Z,1.00
2023-01-09T18:19:51.069Z,1.00
2023-01-09T18:22:18.740Z,1.30
2023-01-09T18:24:46.295Z,1.43
2023-01-09T18:27:13.968Z,1.20
2023-01-09T18:29:41.680Z,1.17
2023-01-09T18:32:11.812Z,1.00
2023-01-09T18:34:39.486Z,1.00
2023-01-09T18:37:07.209Z,1.30
2023-01-09T18:39:34.887Z,1.23
2023-01-09T18:42:02.540Z,1.40
2023-01-09T18:44:30.174Z,1.63
2023-01-09T18:46:57.808Z,1.40
2023-01-09T18:49:25.485Z,1.30
2023-01-09T18:51:53.089Z,1.00
2023-01-09T18:54:20.864Z,1.00
2023-01-09T18:56:49.054Z,1.63
2023-01-09T18:59:35.202Z,1.30
2023-01-09T19:02:10.586Z,1.20
2023-01-09T19:04:50.623Z,1.40
2023-01-09T19:07:22.038Z,1.50
2023-01-09T19:10:05.949Z,1.83
2023-01-09T19:12:48.770Z,1.40
2023-01-09T19:15:38.298Z,1.47
2023-01-09T19:18:34.202Z,0.93
2023-01-09T19:21:47.868Z,1.37
2023-01-09T19:24:43.390Z,1.17
2023-01-09T19:28:59.669Z,1.20
2023-01-09T19:30:12.836Z,1.23
2023-01-09T19:32:40.491Z,1.07
2023-01-09T19:35:08.560Z,1.50
2023-01-09T19:37:37.318Z,1.50
2023-01-09T19:40:05.424Z,1.20
2023-01-09T19:42:33.066Z,2.37
2023-01-09T19:45:00.769Z,1.63
2023-01-09T19:47:28.423Z,1.70
2023-01-09T19:49:56.069Z,1.57
2023-01-09T19:52:23.800Z,1.47
2023-01-09T19:54:51.460Z,1.80
2023-01-09T19:57:19.355Z,1.80
2023-01-09T19:59:46.946Z,2.30
2023-01-09T20:02:15.436Z,1.70
2023-01-09T20:04:43.205Z,1.60
2023-01-09T20:07:11.078Z,1.10
2023-01-09T20:09:38.771Z,1.13
2023-01-09T20:12:06.696Z,1.30
2023-01-09T20:14:37.081Z,2.70
2023-01-09T20:17:04.932Z,2.67
2023-01-09T20:19:33.160Z,2.20
2023-01-09T20:22:01.120Z,1.50
2023-01-09T20:24:28.994Z,1.50
2023-01-09T20:26:56.676Z,2.00
2023-01-09T20:29:24.782Z,2.10
2023-01-09T20:31:52.524Z,2.30
2023-01-09T20:34:20.299Z,2.23
2023-01-09T20:36:48.608Z,2.53
2023-01-09T20:39:16.372Z,2.37
2023-01-09T20:41:44.040Z,2.87
2023-01-09T20:44:13.514Z,2.73
2023-01-09T20:46:44.719Z,2.53
2023-01-09T20:49:13.853Z,2.10
2023-01-09T20:51:44.529Z,2.07
2023-01-09T20:54:13.593Z,2.20
2023-01-09T20:56:41.801Z,1.70
2023-01-09T20:59:17.039Z,1.53
2023-01-09T21:01:44.776Z,1.90
2023-01-09T21:04:12.714Z,1.67
2023-01-09T21:06:40.745Z,2.00
2023-01-09T21:09:08.589Z,1.63
2023-01-09T21:11:36.375Z,1.60
2023-01-09T21:14:04.120Z,1.73
2023-01-09T21:16:31.958Z,2.37
2023-01-09T21:19:02.533Z,1.60
2023-01-09T21:21:30.937Z,2.17
2023-01-09T21:24:00.969Z,2.27
2023-01-09T21:26:31.081Z,2.20
2023-01-09T21:29:01.402Z,2.27
2023-01-09T21:31:34.986Z,2.10
2023-01-09T21:34:07.139Z,1.80
2023-01-09T21:36:35.951Z,1.80
2023-01-09T21:39:08.051Z,1.30
2023-01-09T21:41:55.036Z,1.63
2023-01-09T21:44:41.613Z,1.20
2023-01-09T21:47:09.568Z,1.20
2023-01-09T21:49:41.636Z,1.23
2023-01-09T21:52:12.902Z,1.40
2023-01-09T21:54:41.502Z,1.70
2023-01-09T21:57:11.611Z,1.67
2023-01-09T21:59:39.338Z,1.63
2023-01-09T22:02:09.931Z,1.50
2023-01-09T22:04:38.980Z,1.40
2023-01-09T22:07:06.736Z,1.50
2023-01-09T22:09:34.508Z,1.30
2023-01-09T22:12:02.383Z,1.50
2023-01-09T22:14:30.038Z,1.83
2023-01-09T22:16:57.777Z,1.80
2023-01-09T22:19:27.397Z,1.30
2023-01-09T22:21:55.715Z,1.40
2023-01-09T22:24:23.443Z,2.13
2023-01-09T22:26:56.388Z,2.27
2023-01-09T22:29:24.105Z,1.20
2023-01-09T22:31:51.840Z,1.10
2023-01-09T22:34:19.729Z,1.30
2023-01-09T22:36:47.740Z,1.40
2023-01-09T22:39:18.588Z,1.70
2023-01-09T22:41:51.429Z,1.80
2023-01-09T22:44:19.323Z,1.73
2023-01-09T22:46:46.963Z,1.43
2023-01-09T22:49:17.299Z,1.40
2023-01-09T22:51:44.927Z,0.90
2023-01-09T22:54:12.523Z,1.40
2023-01-09T22:56:40.162Z,0.90
2023-01-09T22:59:07.880Z,0.90
2023-01-09T23:01:35.691Z,0.90
2023-01-09T23:04:04.680Z,0.80
2023-01-09T23:06:34.975Z,0.70
2023-01-09T23:09:02.611Z,0.60
2023-01-09T23:11:50.386Z,0.70
2023-01-09T23:14:21.245Z,0.60
2023-01-09T23:16:48.892Z,0.83
2023-01-09T23:19:16.648Z,0.73
2023-01-09T23:21:45.403Z,0.83
2023-01-09T23:24:15.443Z,0.60
2023-01-09T23:26:43.821Z,0.80
2023-01-09T23:29:12.370Z,0.73
2023-01-09T23:31:40.256Z,0.60
2023-01-09T23:34:08.359Z,0.87
2023-01-09T23:36:36.437Z,0.50
2023-01-09T23:39:08.695Z,0.40
2023-01-09T23:41:55.627Z,0.50
2023-01-09T23:44:23.249Z,0.57
2023-01-09T23:46:51.016Z,0.47
2023-01-09T23:49:18.666Z,0.63
2023-01-09T23:51:46.449Z,0.50
2023-01-09T23:54:14.393Z,0.50
2023-01-09T23:56:42.060Z,0.50
2023-01-09T23:59:12.604Z,0.57
